Nixon, Texas
Current Conditions -  °F | °C
As of 4:55 PM on Thursday 23 Oct 2014 (Local Time) from KT20 Reporting Station
Scattered Clouds Scattered Clouds  
Wind Chill: 82°   Ceiling: Unl
Heat Index: 82°   Visibility: 10mi
Dew Point: 60°   Wind: 3mph
Humidity: 47%   Direction: 100°E
Pressure: 30.05"   Gusts: NA
Location:  29.27°N, 97.76°W
Report Text: KT20 232155Z AUTO 10003KT 10SM SCT110 28/15 A3005 RMK AO2 T02760154
Loading
Personal Weather Stations






























Interactive Weather Map
Tropical Storm Tracking
New forecast layout! Learn more

10-Day Weather Forecast

Advertisements
Track Severe Weather on mobile